METAR Analyzer

一覧表示

Hello, Guest. (Login)

WADD/DPS  -  バリ/デンパサール/ングラ・ライ

観測日時
2021-05-15 18:00 (UTC) (11分前)
気温
27
露点
25
湿数
2
相対湿度
88.8%
QNH
1009hPa
推定現地気圧
1008.5hPa
推定海面気圧
1009.0hPa
体感温度
22
(無風時)
27.2
HI
30.9
気温前日比
±0
体感温度前日比
+0.1
HI前日比
±0
水平視程
>10000m
鉛直視程
データなし
雲底高度
No dense clouds
V/I
VMC (VFR)
RVR
No RVR data
卓越風
10kt from 120°
ガスト
No gust
降水
報告なし
その他の天気
報告なし
少しの雲 @ 1700ft AGL

WADD 151800Z 12010KT 9999 FEW017 27/25 Q1009 NOSIG

RPLL/MNL  -  マニラ/ニノイ・アキノ

観測日時
2021-05-15 18:00 (UTC) (11分前)
気温
29
露点
24
湿数
5
相対湿度
74.5%
QNH
1009.1hPa
推定現地気圧
1006.3hPa
推定海面気圧
1008.9hPa
体感温度
25
(無風時)
27.9
HI
33.6
気温前日比
±0
体感温度前日比
-0.4
HI前日比
±0
水平視程
>10000m
鉛直視程
データなし
雲底高度
No dense clouds
V/I
VMC (VFR)
RVR
No RVR data
卓越風
4kt from 110° (70° ~ 170°)
ガスト
No gust
降水
報告なし
その他の天気
報告なし
少しの雲 @ 2500ft AGL

RPLL 151800Z 11004KT 070V170 9999 FEW025 29/24 Q1009 NOSIG RMK A2980

VTBS/BKK  -  バンコク/スワンナプーム

観測日時
2021-05-15 17:30 (UTC) (41分前)
気温
30
露点
27
湿数
3
相対湿度
84%
QNH
1007hPa
推定現地気圧
1006.8hPa
推定海面気圧
1007.0hPa
体感温度
26.2
(無風時)
29.4
HI
38.8
気温前日比
±0
体感温度前日比
+0.3
HI前日比
+1.4
水平視程
>10000m
鉛直視程
データなし
雲底高度
No dense clouds
V/I
VMC (VFR)
RVR
No RVR data
卓越風
7kt from 190°
ガスト
No gust
降水
報告なし
その他の天気
報告なし
少しの雲 @ 2000ft AGL

VTBS 151730Z 19007KT 9999 FEW020 30/27 Q1007 NOSIG

VTSM/USM  -  サムイ